Time;durP1;ratioP1;P1;durP2;ratioP2;P2;SDS_P1;SDS_P2;PMS_P1;PMS_P2;Temp;Humidity;BMP_temperature;BMP_pressure;BME280_temperature;BME280_humidity;BME280_pressure;Samples;Min_cycle;Max_cycle;Signal;HPM_P1;HPM_P2
2021/12/28 00:01:06;;;;;;;49.50;23.73;;;;;;;-9.31;100.00;100461.23;1726727;83;20990;-71
2021/12/28 00:03:35;;;;;;;39.30;19.43;;;;;;;-9.29;100.00;100468.60;1705657;83;20977;-72
2021/12/28 00:06:02;;;;;;;41.73;18.97;;;;;;;-9.27;100.00;100463.33;1730528;82;21464;-72
2021/12/28 00:08:28;;;;;;;39.00;18.87;;;;;;;-9.26;100.00;100457.18;1701615;83;21047;-71
2021/12/28 00:10:56;;;;;;;37.20;18.67;;;;;;;-9.25;100.00;100452.37;1692822;85;21503;-71
2021/12/28 00:13:23;;;;;;;38.10;19.40;;;;;;;-9.24;100.00;100452.77;1717888;83;21034;-71
2021/12/28 00:18:24;;;;;;;42.48;20.80;;;;;;;-9.25;100.00;100449.29;1717991;82;21070;-71
2021/12/28 00:20:54;;;;;;;45.30;21.60;;;;;;;-9.27;100.00;100441.92;1717855;82;20991;-72
2021/12/28 00:23:27;;;;;;;42.17;21.27;;;;;;;-9.27;100.00;100438.45;1718096;83;21014;-71
2021/12/28 00:25:54;;;;;;;45.75;22.27;;;;;;;-9.26;100.00;100434.91;1718029;82;21038;-71
2021/12/28 00:28:22;;;;;;;40.43;20.03;;;;;;;-9.25;100.00;100434.88;1718008;83;21022;-71
2021/12/28 00:30:48;;;;;;;37.60;18.33;;;;;;;-9.24;100.00;100432.69;1718156;83;21006;-71
2021/12/28 00:33:17;;;;;;;42.23;20.17;;;;;;;-9.22;100.00;100429.58;1717574;83;21074;-71
2021/12/28 00:35:44;;;;;;;41.50;20.03;;;;;;;-9.21;100.00;100429.97;1717920;82;21009;-71
2021/12/28 00:38:15;;;;;;;55.27;23.53;;;;;;;-9.20;100.00;100423.85;1718011;83;21050;-71
2021/12/28 00:40:42;;;;;;;46.83;21.57;;;;;;;-9.20;100.00;100415.99;1717724;82;21006;-71
2021/12/28 00:43:09;;;;;;;59.87;26.40;;;;;;;-9.18;100.00;100414.19;1718023;83;21061;-71
2021/12/28 00:45:36;;;;;;;52.10;23.57;;;;;;;-9.16;100.00;100415.01;1717736;83;21496;-72
2021/12/28 00:48:03;;;;;;;42.83;19.90;;;;;;;-9.14;100.00;100411.50;1717986;82;21031;-71
2021/12/28 00:50:30;;;;;;;40.73;18.47;;;;;;;-9.12;100.00;100408.39;1717973;83;21002;-71
2021/12/28 00:52:56;;;;;;;42.17;18.97;;;;;;;-9.09;100.00;100407.87;1717985;82;21058;-72
2021/12/28 00:55:24;;;;;;;45.07;20.90;;;;;;;-9.04;100.00;100406.45;1717718;82;21067;-71
2021/12/28 00:57:51;;;;;;;38.93;18.40;;;;;;;-8.98;100.00;100402.36;1717917;83;21058;-71
2021/12/28 01:00:27;;;;;;;43.70;20.77;;;;;;;-8.93;100.00;100396.55;1717976;82;20994;-72
2021/12/28 01:02:56;;;;;;;41.77;19.53;;;;;;;-8.86;100.00;100389.40;1715460;83;21533;-71
2021/12/28 01:05:22;;;;;;;36.47;17.87;;;;;;;-8.77;100.00;100387.84;1711785;84;21040;-71
2021/12/28 01:07:49;;;;;;;40.37;19.93;;;;;;;-8.72;100.00;100370.23;1710698;83;21539;-72
2021/12/28 01:10:19;;;;;;;60.80;24.50;;;;;;;-8.65;100.00;100376.17;1711976;84;20979;-72
2021/12/28 01:12:49;;;;;;;52.90;23.63;;;;;;;-8.63;100.00;100363.42;1717273;82;21082;-70
2021/12/28 01:15:16;;;;;;;55.77;23.40;;;;;;;-8.61;100.00;100352.89;1723334;83;21022;-72
2021/12/28 01:17:43;;;;;;;46.97;20.23;;;;;;;-8.59;100.00;100356.33;1724413;82;21006;-71
2021/12/28 01:20:11;;;;;;;43.53;19.63;;;;;;;-8.61;100.00;100341.09;1724786;83;21049;-72
2021/12/28 01:22:38;;;;;;;46.37;21.53;;;;;;;-8.64;100.00;100339.43;1727506;83;21026;-71
2021/12/28 01:25:06;;;;;;;49.83;23.40;;;;;;;-8.66;100.00;100344.30;1727441;83;21046;-71
2021/12/28 01:27:33;;;;;;;36.83;19.83;;;;;;;-8.68;100.00;100352.66;1727377;83;21046;-71
2021/12/28 01:30:00;;;;;;;40.40;19.50;;;;;;;-8.71;100.00;100347.06;1725507;83;21044;-71
2021/12/28 01:32:27;;;;;;;37.77;17.17;;;;;;;-8.74;100.00;100355.45;1724723;83;21018;-71
2021/12/28 01:34:55;;;;;;;40.53;17.80;;;;;;;-8.75;100.00;100353.72;1724516;83;21069;-71
2021/12/28 01:37:29;;;;;;;36.43;17.73;;;;;;;-8.76;100.00;100359.42;1724476;83;21084;-72
2021/12/28 01:39:56;;;;;;;177.57;71.23;;;;;;;-8.79;100.00;100356.88;1724493;83;21515;-72
2021/12/28 01:42:23;;;;;;;159.60;67.67;;;;;;;-8.80;100.00;100363.02;1724749;83;21045;-70
2021/12/28 01:44:50;;;;;;;254.47;100.07;;;;;;;-8.81;100.00;100360.84;1724321;83;21081;-71
2021/12/28 01:47:17;;;;;;;238.93;92.73;;;;;;;-8.80;100.00;100352.53;1724495;83;21040;-71
2021/12/28 01:49:45;;;;;;;399.50;148.60;;;;;;;-8.81;100.00;100356.06;1724449;83;21034;-71
2021/12/28 01:52:12;;;;;;;248.87;95.57;;;;;;;-8.85;100.00;100355.29;1724484;83;21008;-70
2021/12/28 01:54:40;;;;;;;189.53;72.83;;;;;;;-8.87;100.00;100351.85;1724552;83;21078;-71
2021/12/28 01:57:08;;;;;;;96.70;41.30;;;;;;;-8.86;100.00;100350.08;1724406;83;21022;-71
2021/12/28 01:59:35;;;;;;;86.10;37.53;;;;;;;-8.87;100.00;100345.30;1724149;83;21085;-71
2021/12/28 02:02:03;;;;;;;63.83;29.77;;;;;;;-8.86;100.00;100352.24;1726093;81;21508;-71
2021/12/28 02:04:30;;;;;;;67.33;30.20;;;;;;;-8.84;100.00;100364.86;1760983;81;21117;-71
2021/12/28 02:06:58;;;;;;;62.03;30.03;;;;;;;-8.83;100.00;100359.19;1761023;81;21039;-72
2021/12/28 02:09:25;;;;;;;107.87;43.77;;;;;;;-8.83;100.00;100356.10;1740816;81;21017;-72
2021/12/28 02:11:53;;;;;;;65.83;29.33;;;;;;;-8.81;100.00;100363.47;1736501;83;21057;-72
2021/12/28 02:14:21;;;;;;;45.40;22.00;;;;;;;-8.79;100.00;100362.13;1730670;83;21054;-72
2021/12/28 02:16:48;;;;;;;50.67;26.20;;;;;;;-8.76;100.00;100363.78;1716433;84;21014;-71
2021/12/28 02:19:15;;;;;;;49.17;24.50;;;;;;;-8.73;100.00;100365.02;1716202;84;20998;-72
2021/12/28 02:21:42;;;;;;;45.13;24.07;;;;;;;-8.72;100.00;100362.83;1716273;84;20986;-71
2021/12/28 02:24:09;;;;;;;52.17;23.40;;;;;;;-8.71;100.00;100365.84;1716290;84;21077;-71
2021/12/28 02:26:38;;;;;;;47.07;21.90;;;;;;;-8.71;100.00;100365.41;1715987;84;21007;-72
2021/12/28 02:29:05;;;;;;;53.37;25.43;;;;;;;-8.69;100.00;100369.27;1716419;84;21121;-72
2021/12/28 02:31:32;;;;;;;47.77;22.73;;;;;;;-8.67;100.00;100363.11;1715977;84;21090;-71
2021/12/28 02:34:02;;;;;;;43.83;20.50;;;;;;;-8.64;100.00;100364.77;1716153;84;21097;-71
2021/12/28 02:36:29;;;;;;;39.97;19.37;;;;;;;-8.63;100.00;100366.50;1716138;84;21085;-71
2021/12/28 02:38:56;;;;;;;37.63;18.40;;;;;;;-8.62;100.00;100362.99;1716352;84;21045;-72
2021/12/28 02:41:23;;;;;;;30.97;15.13;;;;;;;-8.60;100.00;100357.25;1716214;84;21034;-72
2021/12/28 02:43:51;;;;;;;33.50;16.23;;;;;;;-8.59;100.00;100351.08;1716286;84;21014;-71
2021/12/28 02:46:17;;;;;;;35.47;16.10;;;;;;;-8.58;100.00;100354.12;1716172;83;21014;-71
2021/12/28 02:48:44;;;;;;;30.30;15.70;;;;;;;-8.55;100.00;100350.55;1716234;83;21085;-71
2021/12/28 02:51:14;;;;;;;28.87;14.00;;;;;;;-8.56;100.00;100344.45;1716107;83;21065;-71
2021/12/28 02:53:44;;;;;;;33.60;15.67;;;;;;;-8.54;100.00;100346.58;1716320;84;21022;-70
2021/12/28 02:56:12;;;;;;;34.40;15.93;;;;;;;-8.54;100.00;100338.71;1716255;84;21034;-71
2021/12/28 02:58:45;;;;;;;35.20;16.87;;;;;;;-8.52;100.00;100346.53;1716301;83;21017;-70
2021/12/28 03:01:15;;;;;;;31.62;18.37;;;;;;;-8.51;100.00;100345.19;1716547;84;20999;-72
2021/12/28 03:03:43;;;;;;;34.37;18.57;;;;;;;-8.48;100.00;100344.23;1717525;83;20982;-72
2021/12/28 03:06:13;;;;;;;41.60;24.17;;;;;;;-8.45;100.00;100347.62;1685434;85;21551;-71
2021/12/28 03:08:43;;;;;;;40.83;20.67;;;;;;;-8.42;100.00;100344.06;1716376;83;21511;-71
2021/12/28 03:11:11;;;;;;;92.37;35.73;;;;;;;-8.40;100.00;100346.16;1718055;83;21512;-72
2021/12/28 03:13:47;;;;;;;55.87;25.03;;;;;;;-8.38;100.00;100344.81;1718063;82;21025;-72
2021/12/28 03:16:14;;;;;;;92.87;34.60;;;;;;;-8.36;100.00;100339.91;1732233;83;21057;-72
2021/12/28 03:18:43;;;;;;;69.70;30.17;;;;;;;-8.34;100.00;100340.72;1690008;84;21063;-71
2021/12/28 03:21:12;;;;;;;80.30;32.07;;;;;;;-8.31;100.00;100327.98;1689889;85;21026;-70
2021/12/28 03:23:39;;;;;;;56.60;25.63;;;;;;;-8.30;100.00;100327.09;1690014;85;21039;-70
2021/12/28 03:26:06;;;;;;;70.53;30.93;;;;;;;-8.29;100.00;100323.09;1690044;85;21082;-70
2021/12/28 03:28:38;;;;;;;59.87;29.47;;;;;;;-8.26;100.00;100314.28;1689861;85;21058;-71
2021/12/28 03:31:07;;;;;;;64.27;28.43;;;;;;;-8.24;100.00;100305.45;1690142;85;21066;-71
2021/12/28 03:33:38;;;;;;;97.50;41.20;;;;;;;-8.19;100.00;100299.23;1689994;85;21066;-73
2021/12/28 03:36:06;;;;;;;78.50;34.40;;;;;;;-8.17;100.00;100300.03;1689984;85;21062;-69
2021/12/28 03:38:33;;;;;;;60.90;26.40;;;;;;;-8.15;100.00;100289.88;1690009;85;21476;-71
2021/12/28 03:41:01;;;;;;;68.07;28.77;;;;;;;-8.12;100.00;100290.27;1682651;85;21039;-71
2021/12/28 03:43:29;;;;;;;44.67;19.53;;;;;;;-8.09;100.00;100279.65;1682555;85;21051;-70
2021/12/28 03:45:56;;;;;;;32.43;14.77;;;;;;;-8.07;100.00;100278.71;1682488;85;21070;-71
2021/12/28 03:48:22;;;;;;;31.60;14.37;;;;;;;-8.04;100.00;100268.56;1682733;85;21042;-70
2021/12/28 03:50:49;;;;;;;31.13;15.40;;;;;;;-8.03;100.00;100272.45;1682434;85;21007;-71
2021/12/28 03:53:16;;;;;;;28.73;14.67;;;;;;;-8.00;100.00;100271.52;1682722;85;21485;-70
2021/12/28 03:55:43;;;;;;;34.53;16.13;;;;;;;-8.01;100.00;100265.38;1682408;85;21063;-69
2021/12/28 03:58:10;;;;;;;37.50;17.63;;;;;;;-7.97;100.00;100266.14;1682645;85;21093;-69
2021/12/28 04:00:41;;;;;;;37.63;20.10;;;;;;;-7.95;100.00;100264.36;1682626;85;21015;-69
2021/12/28 04:03:09;;;;;;;38.10;22.10;;;;;;;-7.95;100.00;100261.73;1667142;85;20983;-70
2021/12/28 04:05:37;;;;;;;36.83;20.17;;;;;;;-7.95;100.00;100264.36;1689135;84;21113;-70
2021/12/28 04:08:04;;;;;;;48.70;24.77;;;;;;;-7.94;100.00;100265.20;1699656;83;21542;-70
2021/12/28 04:10:38;;;;;;;36.20;18.90;;;;;;;-7.93;100.00;100262.97;1726461;83;21025;-70
2021/12/28 04:13:00;;;;;;;27.10;14.13;;;;;;;-7.89;100.00;100260.67;1721837;83;21038;-70
2021/12/28 04:15:26;;;;;;;26.93;13.10;;;;;;;-7.88;100.00;100255.38;1720808;83;21019;-71
2021/12/28 04:17:54;;;;;;;30.33;17.03;;;;;;;-7.86;100.00;100257.50;1716256;84;21045;-70
2021/12/28 04:20:22;;;;;;;29.60;13.70;;;;;;;-7.86;100.00;100248.73;1716160;84;21086;-69
2021/12/28 04:22:50;;;;;;;27.20;14.30;;;;;;;-7.87;100.00;100239.16;1716130;84;21749;-70
2021/12/28 04:25:17;;;;;;;24.47;13.60;;;;;;;-7.88;100.00;100240.94;1716418;84;21081;-69
2021/12/28 04:27:46;;;;;;;26.03;13.57;;;;;;;-7.88;100.00;100227.81;1716489;84;21021;-70
2021/12/28 04:30:14;;;;;;;26.20;13.50;;;;;;;-7.85;100.00;100230.78;1716398;84;21551;-70
2021/12/28 04:32:41;;;;;;;22.93;11.63;;;;;;;-7.85;100.00;100225.06;1694151;84;21014;-69
2021/12/28 04:35:08;;;;;;;24.30;12.83;;;;;;;-7.82;100.00;100224.13;1716194;84;21093;-70
2021/12/28 04:37:37;;;;;;;26.00;12.27;;;;;;;-7.80;100.00;100223.61;1716130;84;21010;-70
2021/12/28 04:40:07;;;;;;;23.47;11.90;;;;;;;-7.79;100.00;100227.97;1716373;84;21582;-69
2021/12/28 04:42:35;;;;;;;32.37;17.27;;;;;;;-7.78;100.00;100218.31;1716073;84;21031;-70
2021/12/28 04:45:03;;;;;;;40.93;24.33;;;;;;;-7.77;100.00;100212.14;1716093;84;21524;-70
2021/12/28 04:47:31;;;;;;;42.87;26.23;;;;;;;-7.77;100.00;100199.89;1716037;84;21078;-70
2021/12/28 04:49:59;;;;;;;37.17;20.93;;;;;;;-7.77;100.00;100202.52;1716387;83;21042;-69
2021/12/28 04:52:30;;;;;;;31.00;16.07;;;;;;;-7.76;100.00;100194.18;1716116;84;21050;-69
2021/12/28 04:54:55;;;;;;;32.30;17.20;;;;;;;-7.77;100.00;100195.08;1716175;84;21030;-70
2021/12/28 04:57:22;;;;;;;28.07;15.80;;;;;;;-7.76;100.00;100188.46;1716068;84;21046;-70
2021/12/28 04:59:50;;;;;;;27.83;14.47;;;;;;;-7.76;100.00;100192.41;1716342;84;21046;-70
2021/12/28 05:02:18;;;;;;;29.27;15.27;;;;;;;-7.75;100.00;100184.09;1716175;84;21062;-70
2021/12/28 05:04:44;;;;;;;27.70;13.20;;;;;;;-7.76;100.00;100175.80;1716439;84;21067;-70
2021/12/28 05:07:12;;;;;;;28.80;13.37;;;;;;;-7.77;100.00;100170.13;1716212;84;21468;-69
2021/12/28 05:09:39;;;;;;;28.53;12.83;;;;;;;-7.78;100.00;100166.66;1716209;83;21059;-70
2021/12/28 05:12:12;;;;;;;25.47;12.43;;;;;;;-7.77;100.00;100164.88;1716436;84;21046;-70
2021/12/28 05:14:42;;;;;;;26.40;12.67;;;;;;;-7.77;100.00;100166.19;1717890;82;21007;-70
2021/12/28 05:17:09;;;;;;;31.23;15.40;;;;;;;-7.76;100.00;100162.20;1738221;82;21029;-70
2021/12/28 05:19:39;;;;;;;25.47;13.67;;;;;;;-7.72;100.00;100159.91;1734593;83;21054;-69
2021/12/28 05:22:08;;;;;;;32.20;18.83;;;;;;;-7.67;100.00;100158.41;1713678;83;21523;-70
2021/12/28 05:24:36;;;;;;;30.60;16.97;;;;;;;-7.65;100.00;100144.34;1734602;83;21064;-70
2021/12/28 05:27:03;;;;;;;32.60;17.87;;;;;;;-7.62;100.00;100134.63;1734550;83;21499;-71
2021/12/28 05:29:30;;;;;;;28.00;15.10;;;;;;;-7.58;100.00;100134.45;1734548;83;21048;-71
2021/12/28 05:31:56;;;;;;;26.17;14.50;;;;;;;-7.56;100.00;100130.46;1734594;83;21013;-70
2021/12/28 05:34:23;;;;;;;25.00;12.67;;;;;;;-7.52;100.00;100130.31;1734559;83;21026;-70
2021/12/28 05:36:50;;;;;;;26.60;13.93;;;;;;;-7.53;100.00;100126.42;1734279;83;21049;-70
2021/12/28 05:39:17;;;;;;;28.90;13.53;;;;;;;-7.51;100.00;100133.78;1734460;83;21014;-71
2021/12/28 05:41:45;;;;;;;24.77;12.40;;;;;;;-7.51;100.00;100121.97;1734212;83;21038;-69
2021/12/28 05:44:18;;;;;;;22.43;11.00;;;;;;;-7.51;100.00;100127.22;1734034;83;21017;-70
2021/12/28 05:46:46;;;;;;;28.13;12.17;;;;;;;-7.51;100.00;100117.56;1734353;83;21479;-69
2021/12/28 05:49:13;;;;;;;23.73;11.93;;;;;;;-7.52;100.00;100115.02;1734028;83;21082;-70
2021/12/28 05:51:40;;;;;;;25.20;13.10;;;;;;;-7.53;100.00;100121.17;1734556;83;21574;-71
2021/12/28 05:54:07;;;;;;;26.93;13.27;;;;;;;-7.52;100.00;100128.14;1734154;83;21049;-70
2021/12/28 05:56:34;;;;;;;26.20;13.43;;;;;;;-7.54;100.00;100123.38;1734092;83;21065;-69
2021/12/28 05:59:01;;;;;;;29.80;14.47;;;;;;;-7.56;100.00;100117.33;1734185;83;21116;-69
2021/12/28 06:01:28;;;;;;;27.40;13.67;;;;;;;-7.59;100.00;100117.00;1734153;83;21069;-70
2021/12/28 06:03:54;;;;;;;30.13;17.33;;;;;;;-7.60;100.00;100119.67;1739527;82;21514;-69
2021/12/28 06:06:21;;;;;;;37.53;18.93;;;;;;;-7.62;100.00;100118.41;1738803;81;21449;-70
2021/12/28 06:08:51;;;;;;;39.37;23.57;;;;;;;-7.63;100.00;100114.09;1744373;82;21056;-70
2021/12/28 06:11:17;;;;;;;35.70;19.70;;;;;;;-7.62;100.00;100113.16;1753715;81;21042;-70
2021/12/28 06:13:46;;;;;;;30.03;17.03;;;;;;;-7.61;100.00;100116.62;1753631;82;21037;-67
2021/12/28 06:16:14;;;;;;;30.50;15.80;;;;;;;-7.61;100.00;100100.44;1747155;82;21013;-68
2021/12/28 06:18:41;;;;;;;29.20;14.27;;;;;;;-7.59;100.00;100098.61;1743425;82;21004;-69
2021/12/28 06:21:08;;;;;;;29.50;14.83;;;;;;;-7.58;100.00;100096.37;1735752;81;21541;-69
2021/12/28 06:23:35;;;;;;;31.47;16.67;;;;;;;-7.58;100.00;100093.74;1744345;82;20971;-70
2021/12/28 06:26:02;;;;;;;36.50;20.60;;;;;;;-7.57;100.00;100088.91;1697248;84;21051;-70
2021/12/28 06:28:29;;;;;;;33.57;18.40;;;;;;;-7.56;100.00;100091.06;1696248;85;21079;-69
2021/12/28 06:30:58;;;;;;;29.57;16.50;;;;;;;-7.56;100.00;100085.81;1718757;83;21043;-69
2021/12/28 06:33:25;;;;;;;29.50;15.70;;;;;;;-7.55;100.00;100075.72;1683224;85;21019;-70
2021/12/28 06:35:54;;;;;;;33.50;19.30;;;;;;;-7.52;100.00;100078.24;1666711;86;21050;-71
2021/12/28 06:38:21;;;;;;;38.43;22.07;;;;;;;-7.54;100.00;100066.91;1735943;81;21027;-70
2021/12/28 06:40:48;;;;;;;36.63;18.17;;;;;;;-7.55;100.00;100075.26;1745468;82;21502;-70
2021/12/28 06:43:15;;;;;;;34.93;19.67;;;;;;;-7.56;100.00;100067.42;1745673;82;21047;-70
2021/12/28 06:45:41;;;;;;;33.57;17.43;;;;;;;-7.56;100.00;100059.55;1713795;82;21584;-71
2021/12/28 06:48:08;;;;;;;32.93;17.13;;;;;;;-7.53;100.00;100056.82;1745418;82;21102;-69
2021/12/28 06:50:36;;;;;;;30.73;16.10;;;;;;;-7.50;100.00;100050.15;1745124;82;21063;-70
2021/12/28 06:53:03;;;;;;;30.90;15.17;;;;;;;-7.47;100.00;100039.50;1744506;82;21063;-71
2021/12/28 06:55:30;;;;;;;32.47;16.13;;;;;;;-7.43;100.00;100035.02;1744689;82;21517;-71
2021/12/28 06:57:58;;;;;;;31.87;15.87;;;;;;;-7.40;100.00;100029.20;1745119;82;21079;-70
2021/12/28 07:00:25;;;;;;;27.57;14.13;;;;;;;-7.39;100.00;100030.89;1745569;82;21063;-72
2021/12/28 07:02:52;;;;;;;27.73;14.20;;;;;;;-7.36;100.00;100029.94;1744661;82;21496;-72
2021/12/28 07:05:19;;;;;;;32.13;15.53;;;;;;;-7.33;100.00;100022.80;1743153;82;21344;-71
2021/12/28 07:07:46;;;;;;;29.90;15.73;;;;;;;-7.30;100.00;100026.59;1738933;82;21075;-71
2021/12/28 07:10:19;;;;;;;29.97;14.73;;;;;;;-7.28;100.00;100022.60;1711717;84;21009;-70
2021/12/28 07:12:48;;;;;;;27.63;12.37;;;;;;;-7.23;100.00;100015.87;1711737;83;21063;-72
2021/12/28 07:15:14;;;;;;;28.30;12.53;;;;;;;-7.20;100.00;99999.99;1716689;82;21042;-72
2021/12/28 07:17:41;;;;;;;27.93;12.60;;;;;;;-7.19;100.00;100001.69;1703168;84;21042;-71
2021/12/28 07:20:14;;;;;;;29.83;13.73;;;;;;;-7.15;100.00;99994.07;1702881;84;21132;-72
2021/12/28 07:22:41;;;;;;;24.87;12.57;;;;;;;-7.13;100.00;99989.17;1740667;82;21045;-71
2021/12/28 07:25:09;;;;;;;25.27;12.10;;;;;;;-7.11;100.00;99979.91;1702820;84;21034;-71
2021/12/28 07:27:37;;;;;;;28.90;15.50;;;;;;;-7.08;100.00;99991.63;1702467;84;21537;-71
2021/12/28 07:30:08;;;;;;;27.63;12.27;;;;;;;-7.03;100.00;99998.84;1740760;82;21048;-75
2021/12/28 07:32:37;;;;;;;25.40;11.90;;;;;;;-6.97;100.00;99994.67;1703058;84;21041;-72
2021/12/28 07:35:04;;;;;;;23.67;11.07;;;;;;;-6.95;100.00;99985.41;1703114;84;21503;-73
2021/12/28 07:37:34;;;;;;;24.00;11.83;;;;;;;-6.95;100.00;99976.22;1702707;84;21081;-72
2021/12/28 07:40:01;;;;;;;28.83;11.93;;;;;;;-6.95;100.00;99973.12;1740255;82;21073;-73
2021/12/28 07:42:27;;;;;;;26.73;11.27;;;;;;;-6.92;100.00;99969.06;1740563;82;21072;-73
2021/12/28 07:44:54;;;;;;;26.03;11.07;;;;;;;-6.91;100.00;99954.98;1740639;82;21029;-73
2021/12/28 07:47:21;;;;;;;31.87;12.50;;;;;;;-6.92;100.00;99934.88;1702902;84;21002;-74
2021/12/28 07:49:48;;;;;;;33.47;13.13;;;;;;;-6.91;100.00;99946.24;1703015;84;21126;-72
2021/12/28 07:52:15;;;;;;;32.37;14.00;;;;;;;-6.90;100.00;99941.39;1740612;82;21060;-73
2021/12/28 07:54:42;;;;;;;25.53;10.73;;;;;;;-6.91;100.00;99939.67;1740923;82;21077;-75
2021/12/28 07:57:09;;;;;;;43.83;17.53;;;;;;;-6.92;100.00;99940.61;1738238;81;21074;-73
2021/12/28 07:59:35;;;;;;;77.87;26.63;;;;;;;-6.92;100.00;99940.61;1713061;83;20996;-72
2021/12/28 08:02:02;;;;;;;54.97;22.63;;;;;;;-6.93;100.00;99937.56;1717480;83;21497;-73
2021/12/28 08:04:29;;;;;;;37.37;16.17;;;;;;;-6.96;100.00;99925.86;1762457;81;21002;-71
2021/12/28 08:06:56;;;;;;;35.43;18.37;;;;;;;-6.99;100.00;99911.08;1745190;81;21087;-69
2021/12/28 08:09:24;;;;;;;27.60;12.87;;;;;;;-6.98;100.00;99918.03;1743359;81;21009;-69
2021/12/28 08:11:52;;;;;;;26.97;10.90;;;;;;;-6.98;100.00;99921.97;1736444;82;21053;-70
2021/12/28 08:14:19;;;;;;;24.13;10.77;;;;;;;-6.96;100.00;99922.76;1728225;82;21044;-70
2021/12/28 08:16:46;;;;;;;23.03;10.17;;;;;;;-6.95;100.00;99931.52;1701465;84;21423;-69
2021/12/28 08:19:13;;;;;;;22.10;10.43;;;;;;;-6.96;100.00;99931.95;1698172;83;21022;-70
2021/12/28 08:21:40;;;;;;;23.20;10.63;;;;;;;-6.94;100.00;99919.63;1706222;83;21006;-69
2021/12/28 08:24:06;;;;;;;24.60;10.20;;;;;;;-6.91;100.00;99911.59;1702682;83;21042;-71
2021/12/28 08:26:33;;;;;;;28.10;13.70;;;;;;;-6.90;100.00;99898.86;1685190;84;21047;-70
2021/12/28 08:29:01;;;;;;;24.60;11.30;;;;;;;-6.85;100.00;99878.96;1660118;86;21051;-70
2021/12/28 08:31:28;;;;;;;26.47;13.17;;;;;;;-6.84;100.00;99875.86;1660226;86;21034;-70
2021/12/28 08:33:55;;;;;;;22.47;10.43;;;;;;;-6.77;100.00;99874.21;1660194;86;21035;-69
2021/12/28 08:36:25;;;;;;;27.13;11.00;;;;;;;-6.73;100.00;99869.67;1656247;86;21046;-78
2021/12/28 08:38:52;;;;;;;20.77;9.33;;;;;;;-6.74;100.00;99866.67;1660883;86;21593;-79
2021/12/28 08:41:21;;;;;;;22.90;9.60;;;;;;;-6.74;100.00;99874.09;1661784;86;21097;-78
2021/12/28 08:43:49;;;;;;;27.20;12.00;;;;;;;-6.75;100.00;99856.59;1703483;83;21555;-79
2021/12/28 08:46:16;;;;;;;21.10;9.03;;;;;;;-6.75;100.00;99838.18;1681343;84;21022;-80
2021/12/28 08:48:45;;;;;;;23.47;10.17;;;;;;;-6.77;100.00;99832.14;1657692;86;21037;-79
2021/12/28 08:51:13;;;;;;;26.10;12.10;;;;;;;-6.75;100.00;99825.50;1705467;83;21017;-79
2021/12/28 08:53:40;;;;;;;31.03;14.20;;;;;;;-6.74;100.00;99807.03;1701499;83;21040;-73
2021/12/28 08:56:06;;;;;;;22.17;10.27;;;;;;;-6.71;100.00;99799.02;1700421;83;20979;-69
2021/12/28 08:58:33;;;;;;;20.07;8.90;;;;;;;-6.63;100.00;99780.73;1698616;83;21060;-69
2021/12/28 09:01:01;;;;;;;21.27;8.93;;;;;;;-6.56;100.00;99791.36;1695445;84;21088;-71
2021/12/28 09:03:28;;;;;;;19.93;9.17;;;;;;;-6.54;100.00;99782.47;1692870;83;21491;-69
2021/12/28 09:05:54;;;;;;;24.73;10.20;;;;;;;-6.57;100.00;99777.36;1650261;86;21061;-69
2021/12/28 09:08:23;;;;;;;20.53;8.70;;;;;;;-6.59;100.00;99768.66;1665869;85;21081;-70
2021/12/28 09:10:50;;;;;;;20.03;9.10;;;;;;;-6.58;100.00;99766.91;1676412;84;21455;-69
2021/12/28 09:13:18;;;;;;;18.13;8.47;;;;;;;-6.61;100.00;99761.78;1722393;82;21019;-71
2021/12/28 09:15:46;;;;;;;22.23;8.47;;;;;;;-6.62;100.00;99763.56;1679683;84;21058;-71
2021/12/28 09:18:15;;;;;;;20.43;8.63;;;;;;;-6.61;100.00;99754.73;1709156;83;21028;-70
2021/12/28 09:20:41;;;;;;;19.73;8.20;;;;;;;-6.58;100.00;99762.49;1715364;81;21476;-71
2021/12/28 09:23:09;;;;;;;16.70;8.40;;;;;;;-6.56;100.00;99771.64;1714126;81;21000;-71
2021/12/28 09:25:37;;;;;;;21.53;9.37;;;;;;;-6.56;100.00;99754.54;1725553;81;21015;-73
2021/12/28 09:28:11;;;;;;;19.20;8.40;;;;;;;-6.57;100.00;99761.59;1729476;81;21707;-71
2021/12/28 09:30:38;;;;;;;23.30;10.20;;;;;;;-6.57;100.00;99749.75;1722637;81;21024;-71
2021/12/28 09:33:06;;;;;;;22.07;8.67;;;;;;;-6.54;100.00;99760.11;1731435;81;21047;-69
2021/12/28 09:35:32;;;;;;;19.90;8.20;;;;;;;-6.41;100.00;99761.73;1675547;84;21060;-70
2021/12/28 09:37:59;;;;;;;18.53;7.53;;;;;;;-6.35;100.00;99744.81;1692437;83;21427;-70
2021/12/28 09:40:26;;;;;;;17.57;7.27;;;;;;;-6.35;100.00;99743.49;1723326;81;20985;-70
2021/12/28 09:42:54;;;;;;;19.73;7.93;;;;;;;-6.40;100.00;99734.48;1729436;81;21003;-70
2021/12/28 09:45:20;;;;;;;22.10;8.50;;;;;;;-6.42;100.00;99751.28;1720830;82;21081;-71
2021/12/28 09:47:48;;;;;;;16.63;7.17;;;;;;;-6.44;100.00;99759.23;1721655;82;21448;-72
2021/12/28 09:50:15;;;;;;;21.47;8.20;;;;;;;-6.42;100.00;99761.80;1688253;83;20994;-72
2021/12/28 09:52:45;;;;;;;22.73;8.00;;;;;;;-6.42;100.00;99760.48;1727923;81;21017;-72
2021/12/28 09:55:13;;;;;;;17.03;7.50;;;;;;;-6.44;100.00;99752.66;1718908;81;21077;-70
2021/12/28 09:57:42;;;;;;;20.83;8.03;;;;;;;-6.44;100.00;99736.03;1747786;81;21483;-71
2021/12/28 10:00:11;;;;;;;18.57;7.23;;;;;;;-6.45;100.00;99736.95;1732391;81;21028;-74
2021/12/28 10:02:44;;;;;;;18.50;7.20;;;;;;;-6.44;100.00;99721.56;1694133;83;21038;-71
2021/12/28 10:05:20;;;;;;;18.63;7.73;;;;;;;-6.44;100.00;99718.46;1733020;82;21538;-70
2021/12/28 10:07:56;;;;;;;17.10;7.87;;;;;;;-6.43;100.00;99712.25;1714582;82;21450;-72
2021/12/28 10:10:21;;;;;;;20.13;8.10;;;;;;;-6.42;100.00;99697.34;1721968;82;21010;-73
2021/12/28 10:12:58;;;;;;;20.77;8.70;;;;;;;-6.37;100.00;99690.09;1734960;82;21622;-71
2021/12/28 10:15:29;;;;;;;15.77;7.20;;;;;;;-6.29;100.00;99665.56;1692102;83;21022;-72
2021/12/28 10:17:59;;;;;;;15.03;6.27;;;;;;;-6.28;100.00;99670.35;1647019;86;21061;-73
2021/12/28 10:20:51;;;;;;;14.27;6.47;;;;;;;-6.29;100.00;99680.03;1636136;87;21070;-69
2021/12/28 10:23:22;;;;;;;16.23;6.90;;;;;;;-6.30;100.00;99687.09;1645542;86;21087;-73
2021/12/28 10:25:53;;;;;;;17.87;7.03;;;;;;;-6.30;100.00;99675.25;1644553;85;21046;-70
2021/12/28 10:28:33;;;;;;;12.83;5.80;;;;;;;-6.29;100.00;99677.41;1652595;85;21531;-76
2021/12/28 10:31:06;;;;;;;17.20;5.93;;;;;;;-6.28;100.00;99712.02;1627699;86;21073;-75
2021/12/28 10:33:38;;;;;;;16.43;6.67;;;;;;;-6.26;100.00;99709.31;1605454;88;21081;-75
2021/12/28 10:36:13;;;;;;;20.63;9.20;;;;;;;-6.25;100.00;99673.72;1604537;88;21531;-74
2021/12/28 10:38:46;;;;;;;15.73;7.13;;;;;;;-6.24;100.00;99657.45;1613500;88;21031;-73
2021/12/28 10:41:14;;;;;;;;;;;;;;;-6.22;100.00;99646.39;1615331;88;21058;-76
2021/12/28 10:43:45;;;;;;;13.13;6.50;;;;;;;-6.22;100.00;99656.44;1609968;88;20146;-74
2021/12/28 10:46:16;;;;;;;10.60;5.70;;;;;;;-6.22;100.00;99634.55;1598594;88;21088;-72
2021/12/28 10:48:50;;;;;;;13.40;6.03;;;;;;;-6.23;100.00;99621.86;1614588;88;21043;-74
2021/12/28 10:51:35;;;;;;;13.80;6.20;;;;;;;-6.23;100.00;99615.28;1528752;92;21180;-73
2021/12/28 10:56:41;;;;;;;25.90;10.73;;;;;;;-6.18;100.00;99602.75;1585378;89;21080;-74
2021/12/28 10:59:12;;;;;;;19.20;9.37;;;;;;;-6.16;100.00;99615.37;1569827;90;21134;-77
2021/12/28 11:01:39;;;;;;;17.93;7.17;;;;;;;-6.16;100.00;99631.59;1573974;89;21060;-74
2021/12/28 11:04:10;;;;;;;17.73;7.67;;;;;;;-6.15;100.00;99602.58;1577302;89;21487;-75
2021/12/28 11:06:44;;;;;;;13.47;6.50;;;;;;;-6.13;100.00;99578.34;1582956;89;21665;-74
2021/12/28 11:09:15;;;;;;;14.97;6.07;;;;;;;-6.12;100.00;99576.59;1570689;89;21070;-72
2021/12/28 11:11:43;;;;;;;15.20;6.93;;;;;;;-6.11;100.00;99569.94;1576890;89;21109;-72
2021/12/28 11:14:17;;;;;;;17.27;7.50;;;;;;;-6.08;100.00;99539.11;1564580;89;21686;-73
2021/12/28 11:16:52;;;;;;;14.87;6.83;;;;;;;-6.04;100.00;99531.44;1586107;89;21097;-75